Impacts METAR Board INFO
IDs:

KSAN - San Diego Intl Arpt, CA, US

Updated at: 1545 UTC 18 Jan 2018
Potential Impact None Slight Moderate High
Time18/03Z 18/04Z 18/05Z 18/06Z 18/07Z 18/08Z 18/09Z 18/10Z 18/11Z 18/12Z 18/13Z 18/14Z 18/15Z
VIS7 7 6 6 6 6 6 7 6 7 7 7 10
CIG-- -- -- -- -- -- -- -- -- -- -- -- --
CoverSCTSCTSCTFEWFEWFEWFEWSCTFEWSCTFEWFEWSCT
FltCatVFRVFRVFRVFRVFRVFRVFRVFRVFRVFRVFRVFRVFR
WX----HZHZHZBRBR--BR--------
WDir29003303200330000350000
WSpd3 0 3 4 0 3 0 0 0 3 0 0 3
WGst-- -- -- -- -- -- -- -- -- -- -- -- --
Raw hourly METARs
KSAN 180251Z 29003KT 7SM FEW005 FEW200 SCT250 17/12 A3012 RMK AO2 SLP199 T01720117 53002
KSAN 180351Z 00000KT 7SM FEW005 FEW200 SCT250 17/11 A3012 RMK AO2 SLP197 T01720106
KSAN 180451Z 33003KT 6SM HZ FEW005 SCT250 16/12 A3012 RMK AO2 SLP198 T01610122
KSAN 180551Z 32004KT 6SM HZ FEW005 FEW250 16/12 A3012 RMK AO2 SLP198 T01560122 10200 20156 55001
KSAN 180651Z 00000KT 6SM HZ FEW005 FEW250 14/11 A3011 RMK AO2 SLP195 T01440111
KSAN 180751Z 33003KT 6SM BR FEW005 FEW250 14/11 A3011 RMK AO2 SLP195 T01440111 402220117
KSAN 180851Z 00000KT 6SM BR FEW005 FEW250 14/11 A3010 RMK AO2 SLP193 T01440106 57005
KSAN 180951Z 00000KT 7SM FEW005 SCT250 15/11 A3010 RMK AO2 SLP192 T01500111
KSAN 181051Z 00000KT 6SM BR FEW005 FEW250 14/12 A3009 RMK AO2 SLP189 T01390117
KSAN 181151Z 35003KT 7SM FEW005 SCT250 13/09 A3008 RMK AO2 SLP185 T01330094 10156 20133 58007
KSAN 181251Z 00000KT 7SM FEW005 FEW250 13/08 A3009 RMK AO2 SLP188 T01280083
KSAN 181351Z 00000KT 7SM FEW005 FEW250 13/09 A3010 RMK AO2 SLP191 T01330094
KSAN 181451Z VRB03KT 10SM FEW005 SCT200 SCT250 13/10 A3011 RMK AO2 SLP194 T01330100 53009